createdAt,value
2018-06-14T00:00:18.308Z,13.45
2018-06-14T00:02:50.684Z,13.47
2018-06-14T00:05:21.391Z,13.57
2018-06-14T00:07:51.295Z,13.47
2018-06-14T00:10:21.040Z,13.46
2018-06-14T00:12:55.899Z,13.44
2018-06-14T00:15:26.324Z,13.43
2018-06-14T00:17:55.941Z,13.41
2018-06-14T00:20:25.813Z,13.41
2018-06-14T00:22:55.944Z,13.42
2018-06-14T00:25:26.715Z,13.38
2018-06-14T00:27:56.428Z,13.37
2018-06-14T00:30:27.291Z,13.42
2018-06-14T00:32:56.957Z,13.37
2018-06-14T00:35:27.366Z,13.38
2018-06-14T00:37:57.760Z,13.34
2018-06-14T00:40:27.634Z,13.48
2018-06-14T00:42:57.491Z,13.46
2018-06-14T00:45:27.258Z,13.44
2018-06-14T00:47:56.961Z,13.43
2018-06-14T00:50:26.666Z,13.34
2018-06-14T00:52:57.861Z,13.40
2018-06-14T00:55:27.606Z,13.35
2018-06-14T00:57:58.768Z,13.33
2018-06-14T01:00:28.453Z,13.38
2018-06-14T01:02:58.391Z,13.34
2018-06-14T01:05:28.385Z,13.35
2018-06-14T01:07:58.695Z,13.31
2018-06-14T01:10:28.457Z,13.34
2018-06-14T01:12:58.394Z,13.33
2018-06-14T01:15:32.428Z,13.30
2018-06-14T01:18:02.593Z,13.29
2018-06-14T01:20:32.487Z,13.25
2018-06-14T01:23:02.507Z,13.22
2018-06-14T01:25:32.183Z,13.18
2018-06-14T01:28:02.611Z,13.19
2018-06-14T01:30:33.306Z,13.23
2018-06-14T01:33:03.373Z,13.16
2018-06-14T01:35:33.310Z,13.13
2018-06-14T01:38:15.196Z,13.09
2018-06-14T01:40:45.080Z,13.03
2018-06-14T01:43:14.745Z,13.01
2018-06-14T01:45:44.872Z,13.12
2018-06-14T01:48:14.599Z,13.13
2018-06-14T01:50:44.251Z,13.04
2018-06-14T01:53:14.076Z,13.06
2018-06-14T01:55:43.815Z,13.03
2018-06-14T01:58:13.502Z,13.11
2018-06-14T02:00:44.974Z,13.04
2018-06-14T02:03:14.711Z,13.01
2018-06-14T02:05:44.436Z,12.98
2018-06-14T02:08:14.449Z,12.93
2018-06-14T02:10:44.360Z,12.97
2018-06-14T02:13:14.105Z,12.96
2018-06-14T02:15:47.083Z,12.95
2018-06-14T02:18:17.735Z,12.95
2018-06-14T02:20:48.387Z,13.01
2018-06-14T02:23:18.518Z,12.97
2018-06-14T02:25:48.601Z,12.97
2018-06-14T02:28:18.316Z,12.94
2018-06-14T02:30:49.068Z,12.89
2018-06-14T02:33:19.285Z,12.88
2018-06-14T02:35:49.227Z,12.85
2018-06-14T02:38:21.716Z,12.85
2018-06-14T02:40:53.629Z,12.85
2018-06-14T02:43:23.347Z,12.81
2018-06-14T02:45:53.689Z,12.76
2018-06-14T02:48:24.633Z,12.78
2018-06-14T02:50:55.265Z,12.76
2018-06-14T02:53:25.033Z,12.79
2018-06-14T02:55:56.397Z,12.77
2018-06-14T02:58:26.190Z,12.78
2018-06-14T03:00:55.823Z,12.84
2018-06-14T03:03:26.220Z,12.91
2018-06-14T03:05:59.700Z,12.86
2018-06-14T03:08:31.093Z,12.87
2018-06-14T03:11:01.235Z,12.88
2018-06-14T03:13:30.914Z,12.87
2018-06-14T03:16:04.231Z,12.97
2018-06-14T03:18:35.056Z,12.90
2018-06-14T03:21:04.824Z,12.87
2018-06-14T03:26:28.888Z,12.83
2018-06-14T03:28:58.500Z,12.82
2018-06-14T03:31:28.253Z,12.96
2018-06-14T03:33:57.913Z,12.94
2018-06-14T03:36:32.682Z,12.92
2018-06-14T03:39:02.968Z,12.85
2018-06-14T03:41:32.673Z,12.80
2018-06-14T03:44:02.388Z,12.81
2018-06-14T03:46:37.197Z,12.80
2018-06-14T03:49:06.916Z,12.85
2018-06-14T03:51:37.222Z,12.81
2018-06-14T03:54:07.112Z,12.83
2018-06-14T03:56:37.295Z,12.76
2018-06-14T03:59:07.304Z,12.73
2018-06-14T04:01:37.348Z,12.74
2018-06-14T04:04:09.642Z,12.79
2018-06-14T04:06:39.647Z,12.80
2018-06-14T04:09:12.133Z,12.78
2018-06-14T04:11:41.844Z,12.74
2018-06-14T04:14:12.295Z,12.76
2018-06-14T04:16:42.038Z,12.78
2018-06-14T04:19:11.992Z,12.79
2018-06-14T04:21:41.655Z,12.90
2018-06-14T04:24:11.488Z,12.93
2018-06-14T04:26:41.220Z,12.93
2018-06-14T04:29:11.180Z,13.01
2018-06-14T04:31:40.807Z,13.32
2018-06-14T04:34:10.596Z,13.28
2018-06-14T04:36:42.749Z,13.23
2018-06-14T04:39:17.692Z,13.23
2018-06-14T04:41:53.365Z,13.24
2018-06-14T04:44:25.488Z,13.37
2018-06-14T04:47:04.795Z,13.41
2018-06-14T04:49:34.574Z,13.44
2018-06-14T04:52:07.681Z,13.52
2018-06-14T04:54:38.276Z,13.56
2018-06-14T04:57:08.994Z,13.54
2018-06-14T04:59:40.116Z,13.64
2018-06-14T05:02:10.329Z,13.67
2018-06-14T05:04:41.004Z,13.75
2018-06-14T05:07:12.205Z,13.79
2018-06-14T05:09:41.853Z,13.91
2018-06-14T05:12:12.928Z,14.01
2018-06-14T05:14:44.373Z,14.12
2018-06-14T05:17:14.287Z,14.08
2018-06-14T05:19:46.341Z,14.08
2018-06-14T05:22:16.175Z,14.18
2018-06-14T05:24:46.231Z,14.30
2018-06-14T05:27:16.400Z,14.39
2018-06-14T05:29:46.375Z,14.47
2018-06-14T05:32:16.286Z,14.45
2018-06-14T05:34:45.919Z,14.63
2018-06-14T05:37:15.606Z,14.74
2018-06-14T05:39:45.263Z,14.78
2018-06-14T05:42:14.925Z,14.84
2018-06-14T05:44:45.180Z,15.04
2018-06-14T05:47:15.075Z,15.05
2018-06-14T05:49:44.766Z,15.06
2018-06-14T05:52:14.758Z,15.09
2018-06-14T05:54:45.228Z,15.10
2018-06-14T05:57:15.311Z,15.11
2018-06-14T05:59:46.140Z,15.17
2018-06-14T06:02:15.766Z,15.22
2018-06-14T06:04:45.850Z,15.21
2018-06-14T06:07:15.730Z,15.34
2018-06-14T06:09:45.992Z,15.34
2018-06-14T06:12:15.804Z,15.46
2018-06-14T06:14:45.503Z,15.43
2018-06-14T06:17:15.883Z,15.42
2018-06-14T06:19:46.175Z,15.47
2018-06-14T06:22:15.904Z,15.65
2018-06-14T06:24:47.191Z,15.75
2018-06-14T06:27:17.925Z,15.82
2018-06-14T06:29:47.683Z,15.88
2018-06-14T06:32:19.484Z,15.78
2018-06-14T06:34:49.749Z,15.89
2018-06-14T06:37:19.636Z,16.12
2018-06-14T06:39:49.808Z,16.07
2018-06-14T06:42:21.932Z,16.24
2018-06-14T06:44:53.309Z,16.18
2018-06-14T06:47:25.291Z,16.18
2018-06-14T06:49:57.401Z,16.32
2018-06-14T06:52:27.128Z,16.43
2018-06-14T06:54:57.420Z,16.50
2018-06-14T06:57:27.525Z,16.48
2018-06-14T06:59:57.341Z,16.52
2018-06-14T07:02:27.314Z,16.65
2018-06-14T07:04:58.880Z,16.60
2018-06-14T07:07:29.343Z,16.72
2018-06-14T07:10:03.343Z,16.98
2018-06-14T07:12:34.800Z,17.28
2018-06-14T07:15:04.635Z,17.57
2018-06-14T07:17:37.807Z,17.69
2018-06-14T07:20:09.595Z,17.40
2018-06-14T07:22:39.365Z,17.47
2018-06-14T07:25:09.971Z,17.43
2018-06-14T07:27:43.138Z,16.70
2018-06-14T07:30:15.383Z,16.75
2018-06-14T07:32:47.404Z,16.64
2018-06-14T07:35:18.019Z,16.72
2018-06-14T07:37:48.843Z,16.81
2018-06-14T07:40:18.560Z,16.93
2018-06-14T07:42:49.271Z,17.06
2018-06-14T07:45:19.284Z,17.25
2018-06-14T07:47:52.077Z,17.38
2018-06-14T07:55:52.453Z,17.38
2018-06-14T07:58:22.919Z,17.49
2018-06-14T08:00:53.857Z,17.81
2018-06-14T08:03:23.475Z,18.05
2018-06-14T08:05:54.063Z,18.28
2018-06-14T08:08:24.306Z,18.35
2018-06-14T08:10:54.871Z,18.42
2018-06-14T08:13:25.402Z,18.46
2018-06-14T08:15:56.231Z,18.63
2018-06-14T08:18:25.859Z,18.59
2018-06-14T08:20:56.092Z,18.46
2018-06-14T08:23:27.537Z,18.74
2018-06-14T08:25:59.296Z,18.85
2018-06-14T08:28:30.368Z,18.81
2018-06-14T08:31:01.748Z,18.93
2018-06-14T08:33:37.745Z,18.76
2018-06-14T08:36:08.286Z,18.75
2018-06-14T08:38:39.102Z,18.76
2018-06-14T08:41:10.108Z,19.09
2018-06-14T08:43:41.654Z,19.35
2018-06-14T08:46:12.060Z,19.66
2018-06-14T08:48:43.789Z,19.84
2018-06-14T08:51:17.549Z,20.06
2018-06-14T08:53:48.480Z,19.86
2018-06-14T08:56:19.226Z,19.73
2018-06-14T08:58:51.551Z,19.82
2018-06-14T09:01:21.782Z,19.27
2018-06-14T09:03:52.656Z,19.18
2018-06-14T09:06:22.383Z,18.95
2018-06-14T09:08:53.614Z,19.25
2018-06-14T09:11:23.921Z,19.78
2018-06-14T09:13:58.635Z,19.88
2018-06-14T09:16:33.966Z,19.98
2018-06-14T09:19:05.165Z,19.81
2018-06-14T09:21:37.431Z,19.46
2018-06-14T09:24:08.904Z,19.31
2018-06-14T09:26:41.300Z,19.26
2018-06-14T09:29:12.855Z,19.01
2018-06-14T09:31:44.497Z,18.81
2018-06-14T09:34:14.486Z,18.81
2018-06-14T09:36:45.821Z,18.68
2018-06-14T09:39:15.594Z,18.84
2018-06-14T09:41:47.220Z,19.21
2018-06-14T09:44:17.142Z,19.44
2018-06-14T09:46:47.627Z,19.70
2018-06-14T09:49:18.392Z,19.66
2018-06-14T09:51:48.898Z,19.73
2018-06-14T09:54:18.572Z,19.81
2018-06-14T09:56:48.395Z,19.97
2018-06-14T09:59:18.884Z,20.12
2018-06-14T10:01:48.693Z,19.85
2018-06-14T10:04:18.491Z,19.96
2018-06-14T10:06:48.562Z,20.11
2018-06-14T10:09:21.080Z,20.42
2018-06-14T10:11:51.423Z,20.87
2018-06-14T10:14:26.326Z,21.44
2018-06-14T10:16:58.208Z,22.87
2018-06-14T10:19:28.265Z,22.44
2018-06-14T10:22:03.416Z,22.12
2018-06-14T10:24:33.756Z,22.54
2018-06-14T10:27:04.090Z,22.36
2018-06-14T10:29:34.552Z,22.10
2018-06-14T10:32:04.800Z,22.05
2018-06-14T10:34:36.748Z,21.79
2018-06-14T10:37:06.604Z,21.62
2018-06-14T10:39:37.651Z,21.42
2018-06-14T10:42:08.039Z,21.54
2018-06-14T10:44:38.836Z,22.24
2018-06-14T10:47:10.738Z,22.39
2018-06-14T10:49:40.713Z,21.92
2018-06-14T10:52:11.469Z,22.99
2018-06-14T10:54:41.337Z,24.55
2018-06-14T10:57:11.089Z,25.38
2018-06-14T10:59:41.119Z,25.00
2018-06-14T11:02:13.122Z,24.42
2018-06-14T11:04:49.348Z,23.62
2018-06-14T11:07:23.185Z,24.26
2018-06-14T11:09:54.023Z,24.49
2018-06-14T11:12:24.324Z,24.83
2018-06-14T11:14:54.461Z,25.25
2018-06-14T11:17:25.167Z,24.76
2018-06-14T11:19:55.459Z,25.54
2018-06-14T11:22:25.850Z,25.89
2018-06-14T11:25:00.758Z,26.14
2018-06-14T11:27:31.428Z,26.80
2018-06-14T11:30:04.452Z,26.08
2018-06-14T11:32:35.960Z,23.98
2018-06-14T11:35:17.312Z,24.81
2018-06-14T11:37:47.466Z,26.79
2018-06-14T11:40:17.737Z,28.55
2018-06-14T11:42:47.607Z,29.35
2018-06-14T11:45:17.739Z,30.28
2018-06-14T11:47:48.459Z,30.31
2018-06-14T11:50:18.413Z,31.31
2018-06-14T11:52:48.493Z,29.75
2018-06-14T11:55:18.420Z,30.47
2018-06-14T11:57:48.782Z,31.57
2018-06-14T12:00:29.264Z,32.06
2018-06-14T12:02:59.176Z,33.09
2018-06-14T12:05:29.244Z,33.05
2018-06-14T12:08:02.763Z,32.97
2018-06-14T12:10:34.091Z,29.65
2018-06-14T12:13:06.543Z,29.50
2018-06-14T12:15:39.289Z,29.40
2018-06-14T12:18:10.019Z,28.44
2018-06-14T12:20:40.345Z,30.19
2018-06-14T12:23:11.837Z,30.34
2018-06-14T12:25:44.905Z,28.63
2018-06-14T12:28:14.905Z,28.37
2018-06-14T12:30:48.707Z,29.74
2018-06-14T12:33:19.330Z,29.64
2018-06-14T12:35:51.407Z,30.07
2018-06-14T12:38:21.538Z,30.40
2018-06-14T12:40:52.357Z,30.79
2018-06-14T12:43:23.356Z,29.66
2018-06-14T12:45:54.076Z,28.56
2018-06-14T12:48:24.246Z,27.01
2018-06-14T12:50:59.711Z,25.87
2018-06-14T12:53:30.324Z,24.35
2018-06-14T12:56:01.298Z,23.68
2018-06-14T12:58:33.499Z,24.26
2018-06-14T13:01:06.347Z,25.10
2018-06-14T13:03:37.618Z,25.93
2018-06-14T13:06:08.002Z,24.79
2018-06-14T13:08:41.169Z,24.24
2018-06-14T13:11:11.984Z,26.47
2018-06-14T13:13:41.798Z,28.46
2018-06-14T13:16:12.898Z,29.37
2018-06-14T13:18:46.190Z,30.87
2018-06-14T13:21:20.097Z,31.87
2018-06-14T13:23:51.674Z,32.64
2018-06-14T13:26:22.058Z,33.49
2018-06-14T13:28:52.717Z,33.16
2018-06-14T13:31:26.107Z,33.48
2018-06-14T13:33:56.541Z,33.74
2018-06-14T13:36:28.108Z,31.11
2018-06-14T13:38:57.945Z,28.95
2018-06-14T13:44:13.436Z,25.69
2018-06-14T13:46:45.362Z,25.40
2018-06-14T13:49:17.169Z,24.93
2018-06-14T13:51:50.715Z,25.46
2018-06-14T13:54:23.575Z,25.91
2018-06-14T13:56:54.405Z,26.11
2018-06-14T13:59:24.280Z,27.49
2018-06-14T14:01:54.244Z,29.60
2018-06-14T14:04:28.309Z,30.63
2018-06-14T14:07:05.202Z,31.80
2018-06-14T14:09:36.685Z,31.78
2018-06-14T14:12:07.503Z,31.49
2018-06-14T14:14:37.411Z,31.21
2018-06-14T14:17:08.792Z,31.79
2018-06-14T14:19:44.702Z,33.65
2018-06-14T14:22:16.743Z,33.17
2018-06-14T14:24:49.327Z,32.43
2018-06-14T14:27:20.841Z,32.42
2018-06-14T14:29:52.227Z,33.77
2018-06-14T14:32:24.884Z,33.57
2018-06-14T14:34:56.459Z,32.37
2018-06-14T14:37:28.437Z,32.05
2018-06-14T14:39:59.159Z,32.66
2018-06-14T14:42:30.198Z,31.67
2018-06-14T14:45:01.182Z,32.67
2018-06-14T14:47:31.465Z,33.47
2018-06-14T14:50:03.228Z,33.60
2018-06-14T14:52:36.175Z,32.50
2018-06-14T14:55:07.111Z,32.69
2018-06-14T14:57:38.138Z,32.64
2018-06-14T15:00:14.995Z,33.10
2018-06-14T15:02:50.640Z,32.43
2018-06-14T15:05:24.758Z,30.32
2018-06-14T15:07:57.551Z,29.92
2018-06-14T15:10:28.333Z,30.18
2018-06-14T15:13:02.574Z,31.02
2018-06-14T15:15:38.303Z,30.97
2018-06-14T15:18:10.192Z,31.43
2018-06-14T15:20:43.470Z,31.06
2018-06-14T15:23:17.535Z,31.36
2018-06-14T15:25:47.781Z,32.17
2018-06-14T15:28:29.706Z,32.46
2018-06-14T15:31:02.275Z,31.13
2018-06-14T15:33:34.096Z,30.65
2018-06-14T15:36:09.891Z,29.42
2018-06-14T15:38:43.584Z,27.17
2018-06-14T15:41:16.646Z,25.57
2018-06-14T15:43:47.321Z,24.98
2018-06-14T15:46:32.789Z,24.44
2018-06-14T15:49:06.232Z,24.02
2018-06-14T15:51:38.787Z,23.26
2018-06-14T15:54:12.790Z,23.28
2018-06-14T15:56:43.684Z,23.45
2018-06-14T15:59:16.305Z,23.47
2018-06-14T16:01:49.383Z,23.56
2018-06-14T16:04:20.312Z,23.30
2018-06-14T16:06:50.852Z,23.27
2018-06-14T16:09:20.915Z,23.14
2018-06-14T16:11:53.778Z,23.33
2018-06-14T16:14:26.705Z,23.50
2018-06-14T16:17:05.451Z,23.25
2018-06-14T16:19:39.974Z,23.20
2018-06-14T16:22:21.198Z,23.20
2018-06-14T16:24:53.167Z,22.90
2018-06-14T16:27:38.694Z,22.92
2018-06-14T16:30:17.931Z,22.80
2018-06-14T16:32:50.671Z,22.88
2018-06-14T16:35:21.915Z,22.94
2018-06-14T16:37:52.092Z,22.94
2018-06-14T16:40:22.413Z,22.86
2018-06-14T16:42:59.257Z,22.77
2018-06-14T16:45:33.710Z,22.68
2018-06-14T16:48:05.537Z,22.83
2018-06-14T16:50:36.594Z,22.73
2018-06-14T16:53:07.823Z,22.60
2018-06-14T16:55:39.644Z,22.42
2018-06-14T16:58:16.494Z,22.34
2018-06-14T17:00:47.281Z,21.97
2018-06-14T17:03:18.310Z,21.84
2018-06-14T17:05:50.431Z,21.89
2018-06-14T17:08:21.008Z,21.66
2018-06-14T17:10:51.511Z,21.40
2018-06-14T17:13:27.151Z,21.32
2018-06-14T17:15:59.373Z,21.30
2018-06-14T17:18:37.177Z,21.07
2018-06-14T17:21:09.369Z,20.97
2018-06-14T17:23:43.408Z,20.95
2018-06-14T17:26:15.345Z,20.78
2018-06-14T17:28:45.895Z,20.70
2018-06-14T17:31:20.837Z,20.56
2018-06-14T17:33:55.272Z,20.42
2018-06-14T17:36:32.443Z,19.44
2018-06-14T17:39:02.525Z,20.38
2018-06-14T17:41:32.557Z,20.30
2018-06-14T17:44:05.108Z,20.28
2018-06-14T17:46:41.749Z,20.08
2018-06-14T17:49:14.378Z,20.14
2018-06-14T17:51:45.818Z,19.97
2018-06-14T17:54:16.004Z,19.87
2018-06-14T17:56:55.423Z,19.85
2018-06-14T17:59:33.233Z,19.74
2018-06-14T18:02:04.431Z,19.54
2018-06-14T18:04:36.364Z,19.62
2018-06-14T18:07:11.043Z,19.61
2018-06-14T18:09:43.326Z,19.63
2018-06-14T18:12:15.321Z,19.64
2018-06-14T18:14:46.352Z,19.45
2018-06-14T18:17:17.549Z,19.40
2018-06-14T18:19:54.432Z,19.42
2018-06-14T18:22:26.670Z,19.39
2018-06-14T18:25:01.087Z,19.38
2018-06-14T18:27:31.238Z,19.22
2018-06-14T18:30:04.851Z,19.25
2018-06-14T18:32:37.463Z,19.24
2018-06-14T18:35:10.390Z,19.06
2018-06-14T18:37:53.535Z,19.00
2018-06-14T18:40:34.233Z,18.93
2018-06-14T18:43:22.204Z,18.79
2018-06-14T18:45:55.200Z,18.67
2018-06-14T18:48:29.329Z,18.77
2018-06-14T18:51:04.530Z,18.66
2018-06-14T18:53:47.246Z,18.58
2018-06-14T18:56:24.171Z,18.52
2018-06-14T18:58:57.233Z,18.36
2018-06-14T19:01:28.018Z,18.21
2018-06-14T19:04:03.866Z,18.22
2018-06-14T19:06:36.904Z,18.14
2018-06-14T19:09:14.028Z,18.11
2018-06-14T19:11:47.894Z,18.08
2018-06-14T19:14:20.630Z,17.92
2018-06-14T19:16:54.777Z,17.87
2018-06-14T19:19:28.190Z,17.78
2018-06-14T19:21:58.171Z,17.64
2018-06-14T19:24:28.642Z,17.56
2018-06-14T19:26:59.542Z,17.52
2018-06-14T19:29:30.591Z,17.45
2018-06-14T19:32:03.373Z,17.32
2018-06-14T19:34:34.815Z,17.23
2018-06-14T19:37:09.271Z,17.22
2018-06-14T19:39:41.687Z,17.13
2018-06-14T19:42:15.464Z,17.04
2018-06-14T19:44:48.651Z,16.86
2018-06-14T19:47:21.921Z,16.68
2018-06-14T19:50:05.888Z,16.54
2018-06-14T19:52:41.110Z,16.42
2018-06-14T19:55:15.100Z,16.41
2018-06-14T19:57:47.341Z,16.43
2018-06-14T20:00:19.397Z,16.29
2018-06-14T20:02:55.320Z,16.13
2018-06-14T20:05:28.717Z,15.93
2018-06-14T20:08:05.800Z,15.83
2018-06-14T20:10:38.405Z,15.67
2018-06-14T20:13:11.060Z,15.64
2018-06-14T20:15:46.197Z,15.52
2018-06-14T20:18:19.595Z,15.44
2018-06-14T20:20:49.965Z,15.36
2018-06-14T20:23:26.196Z,15.32
2018-06-14T20:26:00.077Z,15.25
2018-06-14T20:28:33.717Z,15.12
2018-06-14T20:31:05.909Z,15.09
2018-06-14T20:33:37.094Z,15.03
2018-06-14T20:36:09.512Z,14.90
2018-06-14T20:38:41.260Z,14.91
2018-06-14T20:41:13.570Z,14.78
2018-06-14T20:43:48.608Z,14.82
2018-06-14T20:46:20.926Z,14.81
2018-06-14T20:48:55.157Z,14.72
2018-06-14T20:51:28.679Z,14.59
2018-06-14T20:54:02.470Z,14.55
2018-06-14T20:56:33.968Z,14.51
2018-06-14T20:59:06.103Z,14.54
2018-06-14T21:01:46.549Z,14.48
2018-06-14T21:04:18.679Z,14.45
2018-06-14T21:06:57.084Z,14.40
2018-06-14T21:09:30.596Z,14.40
2018-06-14T21:12:09.142Z,14.44
2018-06-14T21:14:45.789Z,14.40
2018-06-14T21:17:22.107Z,14.46
2018-06-14T21:20:00.058Z,14.37
2018-06-14T21:22:36.684Z,14.31
2018-06-14T21:25:08.192Z,14.27
2018-06-14T21:27:42.101Z,14.34
2018-06-14T21:30:14.353Z,14.28
2018-06-14T21:32:48.271Z,14.29
2018-06-14T21:35:22.108Z,14.35
2018-06-14T21:37:56.574Z,14.41
2018-06-14T21:40:37.277Z,14.45
2018-06-14T21:43:19.622Z,14.53
2018-06-14T21:45:53.818Z,14.53
2018-06-14T21:48:32.094Z,14.53
2018-06-14T21:51:27.380Z,14.55
2018-06-14T21:54:02.829Z,14.56
2018-06-14T21:56:33.056Z,14.54
2018-06-14T21:59:04.394Z,14.53
2018-06-14T22:01:34.733Z,14.42
2018-06-14T22:04:09.166Z,14.43
2018-06-14T22:06:40.284Z,14.39
2018-06-14T22:09:10.424Z,14.26
2018-06-14T22:11:42.032Z,14.22
2018-06-14T22:14:14.412Z,14.21
2018-06-14T22:16:45.266Z,14.14
2018-06-14T22:19:15.475Z,14.13
2018-06-14T22:21:58.691Z,14.11
2018-06-14T22:24:29.700Z,14.07
2018-06-14T22:27:00.198Z,14.10
2018-06-14T22:29:31.186Z,14.14
2018-06-14T22:32:05.633Z,14.12
2018-06-14T22:34:48.586Z,13.84
2018-06-14T22:37:18.332Z,14.02
2018-06-14T22:39:49.110Z,13.94
2018-06-14T22:42:20.735Z,13.99
2018-06-14T22:44:51.187Z,13.93
2018-06-14T22:47:25.975Z,13.93
2018-06-14T22:49:56.084Z,13.92
2018-06-14T22:53:02.402Z,13.88
2018-06-14T22:55:35.160Z,13.87
2018-06-14T22:58:06.887Z,13.80
2018-06-14T23:01:54.646Z,13.74
2018-06-14T23:04:26.941Z,13.77
2018-06-14T23:07:03.177Z,13.75
2018-06-14T23:10:42.680Z,13.72
2018-06-14T23:13:14.073Z,13.68
2018-06-14T23:15:44.735Z,13.62
2018-06-14T23:18:20.219Z,13.56
2018-06-14T23:20:51.861Z,13.58
2018-06-14T23:23:22.214Z,13.64
2018-06-14T23:25:53.638Z,13.69
2018-06-14T23:28:23.388Z,13.59
2018-06-14T23:30:55.313Z,13.60
2018-06-14T23:33:26.806Z,13.57
2018-06-14T23:35:56.580Z,13.53
2018-06-14T23:38:27.230Z,13.51
2018-06-14T23:40:56.916Z,13.50
2018-06-14T23:43:29.943Z,13.49
2018-06-14T23:46:00.181Z,13.58
2018-06-14T23:48:30.120Z,13.51
2018-06-14T23:51:02.310Z,13.49
2018-06-14T23:53:32.410Z,13.44
2018-06-14T23:56:02.042Z,13.47
2018-06-14T23:58:31.765Z,13.37
